createdAt,value
2019-03-22T00:00:11.449Z,7.20
2019-03-22T00:02:40.306Z,7.23
2019-03-22T00:05:09.146Z,8.27
2019-03-22T00:07:38.742Z,7.50
2019-03-22T00:10:07.589Z,7.15
2019-03-22T00:12:36.418Z,7.17
2019-03-22T00:15:06.233Z,7.23
2019-03-22T00:17:35.070Z,7.37
2019-03-22T00:20:04.818Z,7.33
2019-03-22T00:22:33.645Z,7.23
2019-03-22T00:25:02.789Z,7.53
2019-03-22T00:27:31.630Z,7.40
2019-03-22T00:30:00.484Z,6.63
2019-03-22T00:32:29.334Z,7.90
2019-03-22T00:34:58.428Z,7.57
2019-03-22T00:37:27.267Z,7.67
2019-03-22T00:39:56.122Z,7.03
2019-03-22T00:42:24.962Z,7.00
2019-03-22T00:44:53.794Z,7.53
2019-03-22T00:47:22.653Z,8.50
2019-03-22T00:49:51.502Z,7.40
2019-03-22T00:52:20.352Z,8.00
2019-03-22T00:54:49.180Z,7.80
2019-03-22T00:57:27.993Z,7.37
2019-03-22T00:59:46.876Z,6.93
2019-03-22T01:02:16.462Z,7.20
2019-03-22T01:04:45.301Z,6.90
2019-03-22T01:07:14.160Z,7.20
2019-03-22T01:09:43.012Z,8.13
2019-03-22T01:12:11.850Z,7.63
2019-03-22T01:14:41.447Z,7.70
2019-03-22T01:17:11.043Z,7.43
2019-03-22T01:19:40.656Z,8.27
2019-03-22T01:22:09.501Z,8.30
2019-03-22T01:24:38.352Z,7.87
2019-03-22T01:27:07.210Z,7.87
2019-03-22T01:29:36.061Z,7.70
2019-03-22T01:32:04.927Z,7.90
2019-03-22T01:34:33.774Z,8.07
2019-03-22T01:37:02.622Z,8.03
2019-03-22T01:39:31.464Z,7.37
2019-03-22T01:42:00.311Z,7.63
2019-03-22T01:44:29.881Z,8.30
2019-03-22T01:46:58.719Z,7.67
2019-03-22T01:49:27.557Z,7.83
2019-03-22T01:51:56.394Z,7.73
2019-03-22T01:54:25.247Z,7.60
2019-03-22T01:56:54.835Z,8.27
2019-03-22T01:59:24.430Z,8.97
2019-03-22T02:01:53.576Z,7.60
2019-03-22T02:04:22.422Z,8.07
2019-03-22T02:06:52.011Z,8.00
2019-03-22T02:09:21.466Z,8.17
2019-03-22T02:11:51.865Z,9.07
2019-03-22T02:14:21.431Z,8.80
2019-03-22T02:16:50.284Z,8.98
2019-03-22T02:19:19.141Z,7.80
2019-03-22T02:21:48.719Z,8.47
2019-03-22T02:24:17.545Z,8.07
2019-03-22T02:26:47.394Z,8.47
2019-03-22T02:29:16.232Z,8.10
2019-03-22T02:31:45.835Z,8.20
2019-03-22T02:34:14.667Z,8.77
2019-03-22T02:36:43.511Z,8.27
2019-03-22T02:39:12.416Z,8.77
2019-03-22T02:41:41.456Z,8.80
2019-03-22T02:44:10.347Z,8.00
2019-03-22T02:46:39.879Z,8.40
2019-03-22T02:49:08.735Z,8.32
2019-03-22T02:51:37.569Z,7.90
2019-03-22T02:54:06.410Z,8.03
2019-03-22T02:56:35.265Z,8.30
2019-03-22T02:59:04.091Z,7.87
2019-03-22T03:01:32.936Z,8.03
2019-03-22T03:04:01.806Z,7.73
2019-03-22T03:06:30.614Z,7.60
2019-03-22T03:08:59.461Z,7.67
2019-03-22T03:11:28.539Z,7.63
2019-03-22T03:13:58.015Z,7.70
2019-03-22T03:16:26.860Z,7.60
2019-03-22T03:18:55.724Z,7.60
2019-03-22T03:21:24.556Z,7.27
2019-03-22T03:23:53.382Z,7.73
2019-03-22T03:26:22.266Z,7.33
2019-03-22T03:28:51.099Z,8.03
2019-03-22T03:31:20.014Z,7.50
2019-03-22T03:33:49.528Z,7.33
2019-03-22T03:36:18.339Z,7.47
2019-03-22T03:38:47.172Z,7.73
2019-03-22T03:41:16.015Z,8.10
2019-03-22T03:43:45.579Z,7.43
2019-03-22T03:46:14.748Z,8.37
2019-03-22T03:48:43.592Z,7.37
2019-03-22T03:51:13.179Z,7.57
2019-03-22T03:53:42.042Z,8.68
2019-03-22T03:56:10.862Z,8.55
2019-03-22T03:58:51.544Z,8.03
2019-03-22T04:01:08.531Z,7.50
2019-03-22T04:03:37.371Z,8.33
2019-03-22T04:06:06.232Z,8.00
2019-03-22T04:08:35.077Z,7.57
2019-03-22T04:11:03.922Z,8.52
2019-03-22T04:13:32.756Z,7.23
2019-03-22T04:16:01.630Z,7.73
2019-03-22T04:18:30.463Z,8.17
2019-03-22T04:21:00.125Z,7.73
2019-03-22T04:23:29.118Z,7.90
2019-03-22T04:25:57.968Z,7.23
2019-03-22T04:28:26.810Z,6.63
2019-03-22T04:30:55.647Z,7.65
2019-03-22T04:33:24.502Z,7.50
2019-03-22T04:35:53.327Z,7.97
2019-03-22T04:38:22.170Z,7.07
2019-03-22T04:40:51.010Z,7.83
2019-03-22T04:43:19.855Z,7.63
2019-03-22T04:45:48.680Z,8.10
2019-03-22T04:48:21.454Z,7.23
2019-03-22T04:50:50.360Z,7.73
2019-03-22T04:53:21.777Z,8.52
2019-03-22T04:55:48.050Z,8.75
2019-03-22T04:58:16.885Z,8.60
2019-03-22T05:00:45.715Z,8.07
2019-03-22T05:03:14.558Z,8.40
2019-03-22T05:05:44.385Z,8.53
2019-03-22T05:08:13.235Z,7.57
2019-03-22T05:10:42.106Z,7.50
2019-03-22T05:13:10.998Z,8.40
2019-03-22T05:15:39.804Z,8.23
2019-03-22T05:18:08.672Z,8.10
2019-03-22T05:20:37.508Z,7.70
2019-03-22T05:23:06.370Z,7.90
2019-03-22T05:25:35.222Z,9.02
2019-03-22T05:28:04.068Z,8.20
2019-03-22T05:33:22.748Z,10.55
2019-03-22T05:35:52.354Z,10.40
2019-03-22T05:38:21.934Z,9.83
2019-03-22T05:40:50.786Z,10.48
2019-03-22T05:43:19.623Z,9.73
2019-03-22T05:45:48.772Z,9.53
2019-03-22T05:48:17.619Z,9.33
2019-03-22T05:50:47.224Z,10.67
2019-03-22T05:53:16.344Z,12.60
2019-03-22T05:55:45.170Z,11.57
2019-03-22T05:58:14.370Z,11.48
2019-03-22T06:00:43.224Z,10.53
2019-03-22T06:03:12.202Z,10.17
2019-03-22T06:05:41.791Z,10.27
2019-03-22T06:08:10.663Z,10.67
2019-03-22T06:10:39.581Z,11.75
2019-03-22T06:13:08.395Z,10.83
2019-03-22T06:15:37.286Z,11.33
2019-03-22T06:18:06.922Z,10.67
2019-03-22T06:20:35.764Z,12.43
2019-03-22T06:23:04.619Z,12.03
2019-03-22T06:25:33.481Z,11.80
2019-03-22T06:28:02.326Z,11.20
2019-03-22T06:30:31.180Z,12.00
2019-03-22T06:33:00.144Z,12.73
2019-03-22T06:35:28.923Z,12.70
2019-03-22T06:37:58.494Z,12.00
2019-03-22T06:40:27.361Z,11.38
2019-03-22T06:42:56.462Z,10.80
2019-03-22T06:45:25.288Z,10.63
2019-03-22T06:47:54.148Z,10.10
2019-03-22T06:50:22.985Z,9.83
2019-03-22T06:52:52.112Z,9.87
2019-03-22T06:55:20.696Z,9.97
2019-03-22T06:57:49.606Z,13.35
2019-03-22T07:00:19.367Z,13.70
2019-03-22T07:02:48.210Z,14.77
2019-03-22T07:05:17.804Z,14.93
2019-03-22T07:07:46.662Z,15.82
2019-03-22T07:10:15.512Z,15.07
2019-03-22T07:12:44.384Z,14.37
2019-03-22T07:15:13.989Z,14.70
2019-03-22T07:17:43.857Z,14.33
2019-03-22T07:20:12.702Z,12.83
2019-03-22T07:22:41.542Z,12.67
2019-03-22T07:25:10.417Z,12.97
2019-03-22T07:27:39.324Z,12.53
2019-03-22T07:30:17.951Z,12.27
2019-03-22T07:32:37.798Z,12.60
2019-03-22T07:35:06.647Z,12.33
2019-03-22T07:37:35.524Z,12.23
2019-03-22T07:40:07.184Z,12.07
2019-03-22T07:42:36.034Z,12.65
2019-03-22T07:45:04.901Z,13.03
2019-03-22T07:47:33.755Z,11.37
2019-03-22T07:50:04.920Z,11.03
2019-03-22T07:52:34.770Z,12.37
2019-03-22T07:55:03.687Z,11.27
2019-03-22T07:57:32.521Z,11.80
2019-03-22T08:00:01.387Z,11.73
2019-03-22T08:02:30.311Z,11.40
2019-03-22T08:04:59.158Z,11.23
2019-03-22T08:07:29.026Z,10.70
2019-03-22T08:09:58.170Z,11.23
2019-03-22T08:12:26.978Z,10.97
2019-03-22T08:14:55.856Z,11.63
2019-03-22T08:17:24.705Z,11.10
2019-03-22T08:19:53.573Z,10.33
2019-03-22T08:22:22.463Z,11.10
2019-03-22T08:24:51.386Z,10.50
2019-03-22T08:27:20.225Z,10.57
2019-03-22T08:29:49.046Z,11.30
2019-03-22T08:32:18.148Z,10.53
2019-03-22T08:34:47.903Z,9.67
2019-03-22T08:37:15.892Z,10.20
2019-03-22T08:39:46.395Z,8.57
2019-03-22T08:42:16.308Z,9.07
2019-03-22T08:44:45.132Z,9.53
2019-03-22T08:47:14.029Z,9.03
2019-03-22T08:49:43.008Z,9.33
2019-03-22T08:52:11.752Z,9.63
2019-03-22T08:54:40.568Z,8.73
2019-03-22T08:57:10.163Z,8.60
2019-03-22T08:59:39.015Z,8.97
2019-03-22T09:02:08.420Z,8.87
2019-03-22T09:04:36.743Z,8.63
2019-03-22T09:07:05.584Z,9.13
2019-03-22T09:09:41.433Z,9.40
2019-03-22T09:12:03.381Z,8.70
2019-03-22T09:14:32.179Z,9.50
2019-03-22T09:17:02.010Z,9.53
2019-03-22T09:19:30.901Z,9.33
2019-03-22T09:21:59.867Z,8.57
2019-03-22T09:24:38.644Z,9.70
2019-03-22T09:26:57.465Z,9.03
2019-03-22T09:29:27.354Z,9.50
2019-03-22T09:31:56.207Z,9.33
2019-03-22T09:34:33.742Z,9.50
2019-03-22T09:36:53.912Z,9.03
2019-03-22T09:39:22.777Z,8.70
2019-03-22T09:41:51.636Z,8.90
2019-03-22T09:44:20.489Z,9.33
2019-03-22T09:46:49.346Z,9.47
2019-03-22T09:49:18.188Z,8.80
2019-03-22T09:51:47.787Z,8.10
2019-03-22T09:54:16.679Z,8.97
2019-03-22T09:56:47.486Z,9.20
2019-03-22T09:59:15.104Z,8.47
2019-03-22T10:01:43.939Z,8.73
2019-03-22T10:04:12.792Z,8.57
2019-03-22T10:06:41.635Z,7.93
2019-03-22T10:09:10.482Z,8.43
2019-03-22T10:11:39.330Z,8.13
2019-03-22T10:14:09.796Z,8.07
2019-03-22T10:16:38.642Z,7.35
2019-03-22T10:19:08.274Z,7.07
2019-03-22T10:21:37.117Z,7.27
2019-03-22T10:24:06.007Z,7.32
2019-03-22T10:26:35.186Z,7.28
2019-03-22T10:29:06.888Z,7.03
2019-03-22T10:31:37.555Z,6.80
2019-03-22T10:34:02.538Z,6.65
2019-03-22T10:36:32.126Z,6.60
2019-03-22T10:39:01.732Z,7.05
2019-03-22T10:41:30.607Z,6.53
2019-03-22T10:43:59.438Z,6.40
2019-03-22T10:46:28.273Z,6.50
2019-03-22T10:48:57.127Z,5.83
2019-03-22T10:51:26.001Z,6.10
2019-03-22T10:53:55.700Z,5.83
2019-03-22T10:56:25.032Z,6.17
2019-03-22T10:58:53.313Z,6.37
2019-03-22T11:01:22.159Z,6.87
2019-03-22T11:03:51.131Z,6.53
2019-03-22T11:06:26.156Z,6.33
2019-03-22T11:08:49.723Z,6.80
2019-03-22T11:11:18.561Z,6.73
2019-03-22T11:13:47.753Z,7.50
2019-03-22T11:16:16.625Z,6.93
2019-03-22T11:18:45.453Z,7.47
2019-03-22T11:21:15.071Z,6.53
2019-03-22T11:23:44.949Z,6.83
2019-03-22T11:26:13.798Z,7.40
2019-03-22T11:28:42.653Z,7.20
2019-03-22T11:31:11.501Z,6.57
2019-03-22T11:33:40.357Z,5.90
2019-03-22T11:36:09.201Z,6.07
2019-03-22T11:38:38.053Z,6.10
2019-03-22T11:41:06.902Z,6.47
2019-03-22T11:43:35.755Z,6.87
2019-03-22T11:46:04.605Z,5.97
2019-03-22T11:48:33.475Z,6.40
2019-03-22T11:51:02.335Z,5.40
2019-03-22T11:53:31.210Z,6.80
2019-03-22T11:56:01.043Z,6.20
2019-03-22T11:58:29.927Z,5.90
2019-03-22T12:00:58.769Z,5.40
2019-03-22T12:03:27.618Z,5.50
2019-03-22T12:05:56.466Z,6.17
2019-03-22T12:08:25.587Z,5.17
2019-03-22T12:10:54.153Z,5.23
2019-03-22T12:13:23.001Z,4.97
2019-03-22T12:15:51.873Z,5.37
2019-03-22T12:18:20.741Z,5.80
2019-03-22T12:20:49.639Z,6.00
2019-03-22T12:23:18.478Z,5.83
2019-03-22T12:25:47.335Z,5.90
2019-03-22T12:28:16.195Z,5.67
2019-03-22T12:30:45.419Z,6.07
2019-03-22T12:33:14.233Z,5.63
2019-03-22T12:35:43.133Z,5.10
2019-03-22T12:38:12.695Z,5.47
2019-03-22T12:40:42.141Z,5.60
2019-03-22T12:43:10.999Z,5.93
2019-03-22T12:45:39.854Z,5.00
2019-03-22T12:48:08.697Z,5.50
2019-03-22T12:50:37.605Z,5.37
2019-03-22T12:53:06.423Z,5.30
2019-03-22T12:55:35.267Z,5.00
2019-03-22T12:58:05.654Z,4.90
2019-03-22T13:00:34.505Z,5.07
2019-03-22T13:03:03.366Z,4.70
2019-03-22T13:05:32.962Z,5.00
2019-03-22T13:08:02.557Z,5.20
2019-03-22T13:10:31.729Z,4.53
2019-03-22T13:13:00.625Z,4.50
2019-03-22T13:15:29.481Z,4.73
2019-03-22T13:17:58.366Z,4.33
2019-03-22T13:20:27.188Z,5.10
2019-03-22T13:22:56.035Z,4.70
2019-03-22T13:25:24.877Z,4.47
2019-03-22T13:28:06.645Z,4.97
2019-03-22T13:30:35.495Z,5.10
2019-03-22T13:33:05.101Z,4.87
2019-03-22T13:35:34.687Z,4.23
2019-03-22T13:38:03.848Z,3.87
2019-03-22T13:40:33.479Z,3.93
2019-03-22T13:43:03.148Z,3.90
2019-03-22T13:45:31.989Z,3.90
2019-03-22T13:48:01.753Z,3.87
2019-03-22T13:50:30.578Z,3.80
2019-03-22T13:52:59.686Z,3.77
2019-03-22T13:55:28.492Z,3.67
2019-03-22T13:57:58.078Z,3.60
2019-03-22T14:00:26.934Z,3.70
2019-03-22T14:03:02.893Z,3.50
2019-03-22T14:05:24.964Z,4.20
2019-03-22T14:07:53.830Z,4.57
2019-03-22T14:10:27.536Z,4.72
2019-03-22T14:12:56.381Z,4.90
2019-03-22T14:15:25.228Z,4.30
2019-03-22T14:17:54.144Z,4.90
2019-03-22T14:20:22.976Z,4.90
2019-03-22T14:22:53.831Z,4.73
2019-03-22T14:25:21.425Z,4.07
2019-03-22T14:27:50.274Z,4.93
2019-03-22T14:30:19.130Z,4.57
2019-03-22T14:32:47.967Z,4.97
2019-03-22T14:35:17.528Z,5.20
2019-03-22T14:37:46.640Z,5.43
2019-03-22T14:40:15.938Z,5.10
2019-03-22T14:42:44.351Z,5.30
2019-03-22T14:45:13.501Z,5.33
2019-03-22T14:47:42.346Z,5.70
2019-03-22T14:50:11.942Z,5.40
2019-03-22T14:52:40.825Z,5.73
2019-03-22T14:55:09.690Z,5.65
2019-03-22T14:57:48.073Z,5.20
2019-03-22T15:00:07.402Z,5.30
2019-03-22T15:02:37.002Z,4.63
2019-03-22T15:05:05.851Z,5.32
2019-03-22T15:07:35.045Z,4.50
2019-03-22T15:10:03.908Z,5.23
2019-03-22T15:12:32.758Z,5.30
2019-03-22T15:15:03.379Z,4.87
2019-03-22T15:17:32.443Z,4.77
2019-03-22T15:20:06.920Z,5.00
2019-03-22T15:22:38.311Z,5.03
2019-03-22T15:25:08.898Z,5.57
2019-03-22T15:27:39.632Z,4.70
2019-03-22T15:30:14.014Z,5.20
2019-03-22T15:32:42.863Z,5.00
2019-03-22T15:35:14.597Z,4.33
2019-03-22T15:37:44.467Z,5.10
2019-03-22T15:40:14.811Z,4.87
2019-03-22T15:42:43.678Z,4.77
2019-03-22T15:45:12.535Z,4.80
2019-03-22T15:47:41.362Z,5.00
2019-03-22T15:50:10.204Z,5.35
2019-03-22T15:52:39.839Z,5.00
2019-03-22T15:55:08.715Z,4.50
2019-03-22T15:57:37.576Z,4.73
2019-03-22T16:00:09.129Z,4.70
2019-03-22T16:02:37.982Z,5.37
2019-03-22T16:05:06.815Z,5.20
2019-03-22T16:07:35.652Z,5.45
2019-03-22T16:10:05.297Z,5.80
2019-03-22T16:12:34.144Z,5.33
2019-03-22T16:15:07.053Z,6.23
2019-03-22T16:17:35.808Z,5.47
2019-03-22T16:20:05.574Z,4.93
2019-03-22T16:22:34.418Z,5.57
2019-03-22T16:25:03.984Z,5.77
2019-03-22T16:27:33.791Z,5.30
2019-03-22T16:30:03.392Z,5.78
2019-03-22T16:32:32.279Z,6.00
2019-03-22T16:35:01.136Z,5.93
2019-03-22T16:37:29.980Z,5.95
2019-03-22T16:39:58.839Z,5.93
2019-03-22T16:42:27.716Z,7.00
2019-03-22T16:44:56.580Z,5.77
2019-03-22T16:47:25.443Z,5.60
2019-03-22T16:49:54.558Z,6.00
2019-03-22T16:52:23.405Z,6.18
2019-03-22T16:54:52.268Z,4.83
2019-03-22T16:57:21.149Z,5.40
2019-03-22T16:59:50.004Z,5.13
2019-03-22T17:02:18.857Z,5.90
2019-03-22T17:04:47.759Z,5.60
2019-03-22T17:07:17.157Z,5.70
2019-03-22T17:09:45.999Z,5.63
2019-03-22T17:12:15.746Z,5.90
2019-03-22T17:14:44.609Z,5.50
2019-03-22T17:17:13.470Z,5.87
2019-03-22T17:19:42.338Z,5.50
2019-03-22T17:22:11.746Z,7.57
2019-03-22T17:24:41.283Z,9.75
2019-03-22T17:27:10.132Z,7.93
2019-03-22T17:29:38.983Z,5.03
2019-03-22T17:32:07.853Z,5.93
2019-03-22T17:34:36.681Z,6.22
2019-03-22T17:37:05.532Z,5.10
2019-03-22T17:39:34.377Z,5.20
2019-03-22T17:42:03.214Z,5.13
2019-03-22T17:44:32.059Z,4.83
2019-03-22T17:47:00.888Z,4.83
2019-03-22T17:49:31.428Z,4.47
2019-03-22T17:52:00.253Z,4.33
2019-03-22T17:54:30.096Z,4.30
2019-03-22T17:56:58.936Z,4.40
2019-03-22T17:59:28.661Z,4.17
2019-03-22T18:01:57.785Z,4.78
2019-03-22T18:04:26.885Z,3.87
2019-03-22T18:09:21.597Z,4.10
2019-03-22T18:11:50.434Z,4.30
2019-03-22T18:14:19.435Z,4.03
2019-03-22T18:16:48.282Z,4.40
2019-03-22T18:19:17.562Z,4.30
2019-03-22T18:21:46.326Z,4.20
2019-03-22T18:24:15.169Z,3.80
2019-03-22T18:26:43.993Z,4.00
2019-03-22T18:29:13.121Z,4.00
2019-03-22T18:31:41.912Z,4.77
2019-03-22T18:34:10.749Z,3.93
2019-03-22T18:36:39.593Z,4.13
2019-03-22T18:39:08.440Z,4.20
2019-03-22T18:41:38.821Z,3.90
2019-03-22T18:44:07.659Z,4.20
2019-03-22T18:46:37.252Z,4.10
2019-03-22T18:49:06.084Z,4.90
2019-03-22T18:51:34.931Z,4.50
2019-03-22T18:54:04.536Z,3.83
2019-03-22T18:56:33.379Z,4.30
2019-03-22T18:59:02.226Z,4.50
2019-03-22T19:01:32.675Z,4.63
2019-03-22T19:04:01.534Z,4.40
2019-03-22T19:06:31.176Z,4.57
2019-03-22T19:08:59.981Z,4.75
2019-03-22T19:11:28.825Z,4.73
2019-03-22T19:13:58.423Z,4.53
2019-03-22T19:16:27.999Z,4.37
2019-03-22T19:18:57.073Z,4.80
2019-03-22T19:21:25.928Z,5.93
2019-03-22T19:23:55.502Z,6.30
2019-03-22T19:26:24.341Z,5.50
2019-03-22T19:28:53.171Z,5.63
2019-03-22T19:31:22.852Z,5.93
2019-03-22T19:33:51.585Z,5.97
2019-03-22T19:36:20.465Z,5.73
2019-03-22T19:38:49.929Z,6.17
2019-03-22T19:41:18.815Z,6.17
2019-03-22T19:43:47.671Z,6.20
2019-03-22T19:46:16.511Z,6.70
2019-03-22T19:48:45.366Z,5.47
2019-03-22T19:51:14.244Z,5.10
2019-03-22T19:53:43.104Z,6.00
2019-03-22T19:56:11.967Z,5.73
2019-03-22T19:58:40.843Z,7.22
2019-03-22T20:01:10.665Z,6.00
2019-03-22T20:03:40.317Z,6.80
2019-03-22T20:06:09.161Z,6.83
2019-03-22T20:08:38.030Z,6.87
2019-03-22T20:11:06.883Z,7.10
2019-03-22T20:13:35.731Z,6.80
2019-03-22T20:16:04.589Z,7.40
2019-03-22T20:18:33.451Z,7.07
2019-03-22T20:21:02.321Z,7.33
2019-03-22T20:23:31.186Z,8.40
2019-03-22T20:26:00.277Z,11.57
2019-03-22T20:28:29.211Z,9.73
2019-03-22T20:30:58.069Z,9.97
2019-03-22T20:33:26.929Z,10.57
2019-03-22T20:35:55.790Z,9.73
2019-03-22T20:38:25.387Z,8.57
2019-03-22T20:40:54.247Z,10.40
2019-03-22T20:43:23.115Z,9.27
2019-03-22T20:45:51.988Z,8.17
2019-03-22T20:48:20.853Z,8.87
2019-03-22T20:50:50.466Z,9.60
2019-03-22T20:53:20.104Z,10.38
2019-03-22T20:55:48.938Z,11.20
2019-03-22T20:58:17.810Z,9.63
2019-03-22T21:00:46.660Z,9.87
2019-03-22T21:03:16.259Z,10.63
2019-03-22T21:05:45.116Z,11.50
2019-03-22T21:08:13.962Z,10.87
2019-03-22T21:10:42.865Z,13.70
2019-03-22T21:13:11.746Z,13.73
2019-03-22T21:15:40.602Z,11.33
2019-03-22T21:18:09.460Z,10.70
2019-03-22T21:20:38.386Z,12.02
2019-03-22T21:23:07.307Z,10.87
2019-03-22T21:25:36.952Z,10.27
2019-03-22T21:28:05.797Z,10.63
2019-03-22T21:30:34.657Z,10.23
2019-03-22T21:33:04.262Z,10.40
2019-03-22T21:35:37.291Z,9.30
2019-03-22T21:38:10.899Z,9.40
2019-03-22T21:40:32.439Z,9.50
2019-03-22T21:43:01.304Z,9.73
2019-03-22T21:45:30.143Z,10.83
2019-03-22T21:47:59.000Z,10.90
2019-03-22T21:50:27.849Z,11.00
2019-03-22T21:52:56.690Z,10.90
2019-03-22T21:55:25.553Z,10.60
2019-03-22T21:57:54.388Z,9.60
2019-03-22T22:00:23.250Z,10.90
2019-03-22T22:02:52.100Z,11.57
2019-03-22T22:05:20.958Z,10.70
2019-03-22T22:07:50.550Z,9.60
2019-03-22T22:10:19.397Z,11.70
2019-03-22T22:12:48.273Z,11.23
2019-03-22T22:15:17.092Z,10.80
2019-03-22T22:17:45.958Z,11.80
2019-03-22T22:20:14.810Z,11.10
2019-03-22T22:22:44.414Z,12.50
2019-03-22T22:25:13.260Z,14.60
2019-03-22T22:27:54.796Z,13.33
2019-03-22T22:30:23.644Z,13.47
2019-03-22T22:32:52.498Z,12.43
2019-03-22T22:35:21.356Z,12.30
2019-03-22T22:37:50.227Z,12.23
2019-03-22T22:40:19.087Z,13.30
2019-03-22T22:42:48.722Z,14.87
2019-03-22T22:45:17.558Z,17.63
2019-03-22T22:47:46.420Z,18.02
2019-03-22T22:50:15.287Z,13.23
2019-03-22T22:52:44.143Z,12.63
2019-03-22T22:55:13.748Z,12.33
2019-03-22T22:57:43.345Z,10.82
2019-03-22T23:00:12.215Z,10.73
2019-03-22T23:02:41.089Z,10.17
2019-03-22T23:05:09.976Z,9.30
2019-03-22T23:07:38.831Z,10.13
2019-03-22T23:10:08.450Z,9.07
2019-03-22T23:12:37.292Z,8.50
2019-03-22T23:15:06.139Z,9.07
2019-03-22T23:17:35.992Z,8.57
2019-03-22T23:20:05.310Z,9.53
2019-03-22T23:22:34.904Z,9.57
2019-03-22T23:25:03.779Z,12.90
2019-03-22T23:27:32.646Z,13.30
2019-03-22T23:30:01.507Z,11.40
2019-03-22T23:32:30.350Z,11.40
2019-03-22T23:34:59.476Z,10.50
2019-03-22T23:37:28.058Z,11.00
2019-03-22T23:39:57.659Z,11.07
2019-03-22T23:42:26.518Z,11.57
2019-03-22T23:44:55.377Z,11.77
2019-03-22T23:47:24.246Z,11.43
2019-03-22T23:49:53.084Z,10.00
2019-03-22T23:52:21.925Z,11.25
2019-03-22T23:54:50.771Z,10.15
2019-03-22T23:57:19.606Z,10.63
2019-03-22T23:59:48.438Z,9.53
